Time;durP1;ratioP1;P1;durP2;ratioP2;P2;SDS_P1;SDS_P2;PMS_P1;PMS_P2;Temp;Humidity;BMP_temperature;BMP_pressure;BME280_temperature;BME280_humidity;BME280_pressure;Samples;Min_cycle;Max_cycle;Signal;HPM_P1;HPM_P2
2022/12/21 00:00:27;;;;;;;31.58;11.30;;;;;;;-5.38;97.77;101836.31;10628048;27;20070;-71
2022/12/21 00:05:28;;;;;;;28.58;9.65;;;;;;;-5.39;97.37;101850.97;10628869;27;20067;-70
2022/12/21 00:10:29;;;;;;;119.07;13.52;;;;;;;-5.41;97.24;101864.88;10628240;27;20463;-71
2022/12/21 00:15:30;;;;;;;46.42;12.05;;;;;;;-6.22;97.61;101730.06;10627368;27;20035;-71
2022/12/21 00:20:31;;;;;;;67.00;11.88;;;;;;;-5.33;98.28;101850.00;10627407;27;20121;-71
2022/12/21 00:25:34;;;;;;;60.65;12.10;;;;;;;-5.11;98.26;101872.03;10628549;27;20180;-70
2022/12/21 00:30:35;;;;;;;51.73;11.40;;;;;;;-5.08;98.13;101878.91;10626951;27;20508;-71
2022/12/21 00:35:36;;;;;;;70.80;10.68;;;;;;;-5.15;97.72;101860.00;10626726;27;20344;-71
2022/12/21 00:40:37;;;;;;;67.22;10.85;;;;;;;-5.68;97.23;101767.81;10627595;27;20087;-71
2022/12/21 00:45:38;;;;;;;19.30;9.23;;;;;;;-5.31;97.93;101824.94;10608876;27;20057;-71
2022/12/21 00:50:39;;;;;;;70.10;9.43;;;;;;;-5.26;98.09;101825.72;10626515;27;20107;-70
2022/12/21 00:55:39;;;;;;;83.32;10.63;;;;;;;-5.44;97.61;101800.16;10625872;27;20091;-71
2022/12/21 01:00:40;;;;;;;27.63;10.23;;;;;;;-6.03;97.88;101686.59;10626351;27;20042;-71
2022/12/21 01:05:44;;;;;;;98.90;11.88;;;;;;;-5.08;98.19;101816.72;10613031;27;20043;-71
2022/12/21 01:10:46;;;;;;;31.42;11.13;;;;;;;-5.08;97.95;101804.59;10625649;27;20043;-71
2022/12/21 01:15:47;;;;;;;69.45;11.63;;;;;;;-5.66;97.51;101704.78;10625583;27;20458;-70
2022/12/21 01:20:50;;;;;;;49.88;10.32;;;;;;;-5.22;97.79;101787.66;10624660;27;20043;-71
2022/12/21 01:25:51;;;;;;;48.08;13.15;;;;;;;-5.21;98.04;101776.38;10625269;27;20039;-71
2022/12/21 01:30:52;;;;;;;61.97;11.45;;;;;;;-6.02;97.84;101632.22;10624977;27;20566;-72
2022/12/21 01:35:53;;;;;;;27.23;10.75;;;;;;;-4.87;98.75;101790.34;10626047;27;20083;-71
2022/12/21 01:40:53;;;;;;;19.75;10.90;;;;;;;-4.66;98.79;101791.59;10605664;27;20411;-71
2022/12/21 01:45:54;;;;;;;30.35;10.80;;;;;;;-5.11;98.13;101708.81;10623873;27;20047;-71
2022/12/21 01:51:03;;;;;;;26.73;10.77;;;;;;;-5.17;98.20;101688.22;10624089;27;20060;-71
2022/12/21 01:56:10;;;;;;;19.77;10.27;;;;;;;-4.63;98.02;101788.94;10624437;27;20541;-71
2022/12/21 02:01:11;;;;;;;39.80;11.00;;;;;;;-4.83;97.78;101789.38;10624839;27;20092;-71
2022/12/21 02:06:34;;;;;;;64.13;11.07;;;;;;;-4.82;98.47;101787.63;10622836;27;20039;-71
2022/12/21 02:11:34;;;;;;;51.83;10.93;;;;;;;-4.87;98.31;101779.13;10622756;27;20440;-71
2022/12/21 02:16:48;;;;;;;48.25;12.05;;;;;;;-4.99;98.59;101758.66;10609529;27;20031;-71
2022/12/21 02:22:05;;;;;;;41.97;10.98;;;;;;;-5.59;99.08;101639.09;10623570;27;20146;-71
2022/12/21 02:27:42;;;;;;;125.90;13.77;;;;;;;-4.72;98.98;101793.47;10623100;27;20521;-71
2022/12/21 02:32:49;;;;;;;38.00;11.63;;;;;;;-4.90;98.74;101763.63;10622108;27;20483;-71
2022/12/21 02:38:11;;;;;;;95.85;10.32;;;;;;;-4.79;98.41;101782.38;10584382;27;20040;-71
2022/12/21 02:48:51;;;;;;;30.02;10.60;;;;;;;-5.34;99.12;101691.19;10537899;28;20051;-70
2022/12/21 02:53:54;;;;;;;38.25;10.90;;;;;;;-4.93;99.02;101759.38;10537918;28;20105;-71
2022/12/21 02:58:55;;;;;;;43.30;10.60;;;;;;;-4.74;99.28;101769.31;10537480;28;20032;-71
2022/12/21 03:04:12;;;;;;;61.00;11.32;;;;;;;-4.52;99.83;101777.44;10536984;28;20499;-71
2022/12/21 03:09:26;;;;;;;57.33;11.65;;;;;;;-4.89;99.91;101703.97;10553879;28;20050;-70
2022/12/21 03:15:04;;;;;;;73.60;12.05;;;;;;;-4.37;100.00;101774.47;10602031;27;20091;-70
2022/12/21 03:20:42;;;;;;;71.85;12.55;;;;;;;-4.33;99.63;101788.25;10601510;27;20039;-68
2022/12/21 03:25:51;;;;;;;55.25;12.90;;;;;;;-4.50;99.78;101762.69;10590640;27;20096;-70
2022/12/21 03:30:56;;;;;;;57.05;14.20;;;;;;;-4.20;100.00;101779.25;10567853;28;20044;-71
2022/12/21 03:36:32;;;;;;;39.88;12.48;;;;;;;-4.05;100.00;101763.28;10587573;28;20043;-70
2022/12/21 03:41:38;;;;;;;47.40;13.02;;;;;;;-4.28;99.30;101745.69;10582124;28;20051;-70
2022/12/21 03:47:01;;;;;;;27.45;11.70;;;;;;;-4.03;100.00;101766.69;10603709;27;20055;-69
2022/12/21 03:52:10;;;;;;;34.97;12.27;;;;;;;-4.00;100.00;101776.16;10586004;28;20462;-68
2022/12/21 03:57:11;;;;;;;25.50;12.40;;;;;;;-3.92;100.00;101769.88;10585986;28;20043;-70
2022/12/21 04:02:28;;;;;;;31.50;12.77;;;;;;;-3.88;100.00;101765.44;10585475;28;20126;-68
2022/12/21 04:07:32;;;;;;;27.00;12.93;;;;;;;-4.03;100.00;101739.91;10591192;27;20100;-70
2022/12/21 04:12:36;;;;;;;29.90;13.00;;;;;;;-3.93;99.72;101754.31;10619371;27;20043;-70
2022/12/21 04:17:37;;;;;;;41.65;12.65;;;;;;;-4.20;99.99;101727.34;10628168;27;20037;-69
2022/12/21 04:28:07;;;;;;;35.17;12.05;;;;;;;-3.98;100.00;101785.63;10626791;27;20050;-69
2022/12/21 04:33:10;;;;;;;56.83;10.52;;;;;;;-4.07;100.00;101800.53;10626959;27;20067;-69
2022/12/21 04:38:10;;;;;;;35.65;10.32;;;;;;;-4.07;100.00;101797.94;10628260;27;20039;-69
2022/12/21 04:43:11;;;;;;;19.00;9.65;;;;;;;-4.60;100.00;101728.38;10626969;27;20047;-69
2022/12/21 04:48:12;;;;;;;38.45;9.43;;;;;;;-4.92;99.76;101700.59;10624786;27;20046;-71
2022/12/21 04:53:13;;;;;;;27.58;10.75;;;;;;;-4.29;100.00;101813.22;10627198;27;20047;-72
2022/12/21 04:58:14;;;;;;;19.08;9.57;;;;;;;-4.22;100.00;101805.25;10625253;27;20413;-72
2022/12/21 05:03:15;;;;;;;24.13;10.75;;;;;;;-4.26;100.00;101790.63;10625886;27;20046;-72
2022/12/21 05:08:16;;;;;;;28.20;9.25;;;;;;;-4.29;99.80;101780.31;10626611;27;20043;-72
2022/12/21 05:13:17;;;;;;;23.95;9.60;;;;;;;-4.45;99.47;101773.81;10625267;27;20456;-72
2022/12/21 05:18:18;;;;;;;15.63;8.23;;;;;;;-4.30;99.51;101811.50;10624921;27;20035;-72
2022/12/21 05:23:18;;;;;;;14.38;7.85;;;;;;;-4.72;99.41;101733.84;10624945;27;20495;-72
2022/12/21 05:28:19;;;;;;;17.27;9.13;;;;;;;-4.38;99.18;101781.41;10624647;27;20047;-72
2022/12/21 05:33:20;;;;;;;15.82;8.63;;;;;;;-4.17;98.95;101787.81;10624201;27;20031;-72
2022/12/21 05:38:20;;;;;;;16.88;9.20;;;;;;;-3.99;98.76;101814.19;10624270;27;20051;-72
2022/12/21 05:43:21;;;;;;;16.75;8.57;;;;;;;-3.96;99.08;101811.50;10624949;27;20083;-72
2022/12/21 05:48:22;;;;;;;13.63;7.80;;;;;;;-3.87;98.41;101828.59;10606223;27;20078;-72
2022/12/21 05:53:23;;;;;;;16.10;8.68;;;;;;;-3.86;98.34;101819.91;10624252;27;20042;-72
2022/12/21 05:58:23;;;;;;;18.80;9.57;;;;;;;-4.04;98.21;101782.28;10623840;27;20046;-72
2022/12/21 06:03:24;;;;;;;18.63;8.60;;;;;;;-3.76;97.98;101822.25;10623470;27;20047;-72
2022/12/21 06:08:25;;;;;;;17.52;9.88;;;;;;;-3.94;98.29;101747.44;10623599;27;20447;-72
2022/12/21 06:13:26;;;;;;;52.03;10.30;;;;;;;-3.58;97.62;101775.91;10623274;27;20031;-72
2022/12/21 06:18:26;;;;;;;19.08;10.10;;;;;;;-3.78;97.55;101738.31;10622786;27;20035;-72
2022/12/21 06:23:27;;;;;;;17.80;9.68;;;;;;;-3.21;97.80;101825.06;10623015;27;20179;-72
2022/12/21 06:28:28;;;;;;;22.60;9.65;;;;;;;-3.64;96.75;101753.53;10623524;27;20043;-72
2022/12/21 06:33:29;;;;;;;18.27;9.98;;;;;;;-3.07;97.46;101816.88;10622495;27;20498;-72
2022/12/21 06:38:31;;;;;;;18.52;9.77;;;;;;;-3.03;96.49;101803.75;10623232;27;20138;-72
2022/12/21 06:43:34;;;;;;;19.05;10.55;;;;;;;-2.97;96.82;101792.31;10622880;27;20535;-72
2022/12/21 06:48:36;;;;;;;19.83;10.50;;;;;;;-2.80;96.81;101799.63;10603775;27;20054;-71
2022/12/21 06:53:39;;;;;;;20.45;10.45;;;;;;;-2.49;96.80;101814.25;10622142;27;20035;-71
2022/12/21 06:58:40;;;;;;;17.65;10.32;;;;;;;-2.36;96.43;101811.25;10621524;28;20043;-71
2022/12/21 07:03:42;;;;;;;17.92;10.23;;;;;;;-2.52;95.37;101794.41;10622080;28;20039;-71
2022/12/21 07:08:43;;;;;;;17.05;9.90;;;;;;;-2.82;95.91;101710.38;10622391;28;20043;-71
2022/12/21 07:13:45;;;;;;;19.35;10.10;;;;;;;-2.22;95.70;101792.56;10622573;28;20070;-71
2022/12/21 07:18:46;;;;;;;18.48;10.00;;;;;;;-2.20;95.00;101813.34;10621817;28;20049;-71
2022/12/21 07:23:48;;;;;;;24.23;11.25;;;;;;;-2.49;95.47;101713.63;10621684;28;20498;-71
2022/12/21 07:28:50;;;;;;;19.25;10.25;;;;;;;-1.88;94.88;101792.28;10620930;28;20051;-71
2022/12/21 07:33:51;;;;;;;20.48;10.82;;;;;;;-1.89;95.00;101794.94;10621910;28;20039;-71
2022/12/21 07:38:53;;;;;;;22.45;10.40;;;;;;;-2.38;94.19;101695.06;10621345;28;20043;-71
2022/12/21 07:43:54;;;;;;;19.92;11.05;;;;;;;-1.91;94.93;101761.13;10621084;28;20487;-71
2022/12/21 07:48:55;;;;;;;19.65;10.52;;;;;;;-1.99;94.88;101747.53;10621511;28;20055;-71
2022/12/21 07:53:56;;;;;;;19.98;11.00;;;;;;;-2.35;94.17;101693.22;10620639;28;20473;-71
2022/12/21 07:58:59;;;;;;;24.73;11.23;;;;;;;-1.89;93.72;101733.25;10620986;28;20039;-71
2022/12/21 08:04:00;;;;;;;18.60;10.73;;;;;;;-1.79;94.17;101733.81;10608383;27;20485;-72
2022/12/21 08:09:01;;;;;;;17.30;9.90;;;;;;;-2.57;93.86;101642.81;10628510;27;20118;-71
2022/12/21 08:14:02;;;;;;;22.02;11.80;;;;;;;-2.39;94.52;101691.63;10628173;27;20042;-71
2022/12/21 08:19:02;;;;;;;19.00;10.25;;;;;;;-2.59;95.14;101634.19;10609404;27;20046;-71
2022/12/21 08:24:04;;;;;;;21.48;11.35;;;;;;;-1.93;94.78;101700.44;10627769;27;20135;-71
2022/12/21 08:29:05;;;;;;;21.35;11.30;;;;;;;-1.83;94.14;101707.00;10627740;27;20039;-71
2022/12/21 08:34:06;;;;;;;19.17;11.13;;;;;;;-1.62;93.67;101688.88;10627008;27;20126;-71
2022/12/21 08:39:07;;;;;;;20.30;10.70;;;;;;;-1.54;93.95;101686.00;10627354;27;20035;-71
2022/12/21 08:44:08;;;;;;;19.42;11.00;;;;;;;-1.50;94.17;101693.63;10608789;27;20043;-71
2022/12/21 08:49:08;;;;;;;25.25;12.05;;;;;;;-1.59;93.51;101687.94;10626363;27;20051;-71
2022/12/21 08:54:09;;;;;;;20.83;10.85;;;;;;;-1.78;94.63;101687.75;10626582;27;20039;-71
2022/12/21 08:59:10;;;;;;;19.33;11.88;;;;;;;-1.91;94.60;101683.00;10627345;27;20047;-71
2022/12/21 09:04:12;;;;;;;17.80;10.32;;;;;;;-2.13;94.74;101676.84;10626234;27;20043;-72
2022/12/21 09:09:13;;;;;;;17.55;10.07;;;;;;;-2.47;94.40;101683.22;10625606;27;20103;-70
2022/12/21 09:14:14;;;;;;;19.13;11.10;;;;;;;-2.71;95.03;101642.41;10625051;27;20099;-70
2022/12/21 09:19:15;;;;;;;20.65;11.20;;;;;;;-2.19;95.06;101666.66;10625934;27;20031;-70
2022/12/21 09:24:15;;;;;;;18.08;9.90;;;;;;;-2.52;94.87;101581.88;10625467;27;20100;-71
2022/12/21 09:29:16;;;;;;;19.95;10.43;;;;;;;-1.97;93.88;101630.28;10606895;27;20500;-71
2022/12/21 09:34:18;;;;;;;15.40;9.30;;;;;;;-1.91;93.12;101656.97;10625738;27;20054;-71
2022/12/21 09:39:19;;;;;;;17.63;10.05;;;;;;;-2.16;93.62;101630.09;10606692;27;20413;-71
2022/12/21 09:44:43;;;;;;;17.73;10.27;;;;;;;-1.98;93.31;101636.38;10624176;27;20035;-71
2022/12/21 09:50:07;;;;;;;15.55;9.60;;;;;;;-1.81;93.32;101636.63;10625107;27;20051;-71
2022/12/21 09:55:14;;;;;;;;;;;;;;;-1.59;92.91;101628.84;10606991;27;20035;-71
2022/12/21 10:00:23;;;;;;;20.17;10.57;;;;;;;-1.64;92.53;101596.91;10623888;27;20411;-71
2022/12/21 10:05:39;;;;;;;20.15;12.45;;;;;;;-1.92;91.21;101508.56;10623475;27;20164;-71
2022/12/21 10:10:51;;;;;;;19.25;11.15;;;;;;;-1.56;91.41;101508.00;10623380;27;20126;-71
2022/12/21 10:16:08;;;;;;;18.67;10.57;;;;;;;-1.03;91.88;101572.75;10623790;27;20043;-71
2022/12/21 10:21:12;;;;;;;20.38;11.38;;;;;;;-0.80;91.94;101563.97;10623366;27;20042;-71
2022/12/21 10:26:17;;;;;;;21.55;11.60;;;;;;;-0.79;91.63;101529.97;10622544;27;20504;-71
2022/12/21 10:31:35;;;;;;;18.45;10.25;;;;;;;-1.15;92.02;101472.41;10623478;27;20031;-71
2022/12/21 10:36:37;;;;;;;18.50;10.40;;;;;;;-0.72;91.06;101533.16;10622124;27;20508;-72
2022/12/21 10:41:43;;;;;;;21.42;11.25;;;;;;;-1.57;91.28;101399.50;10622542;27;20043;-71
2022/12/21 10:46:46;;;;;;;20.40;10.80;;;;;;;-1.09;91.61;101479.97;10622382;27;20055;-71
2022/12/21 10:51:47;;;;;;;20.45;11.57;;;;;;;-0.61;91.58;101550.97;10621789;27;20045;-71
2022/12/21 10:56:50;;;;;;;20.73;11.15;;;;;;;-1.06;92.28;101463.34;10622190;27;20031;-71
2022/12/21 11:01:52;;;;;;;18.63;10.85;;;;;;;-0.40;92.01;101541.38;10603586;28;20039;-71
2022/12/21 11:07:23;;;;;;;28.00;12.73;;;;;;;-0.39;90.90;101540.44;10621545;28;20039;-71
2022/12/21 11:12:25;;;;;;;23.02;12.25;;;;;;;-1.11;91.57;101471.38;10622000;28;20096;-71
2022/12/21 11:17:28;;;;;;;21.00;13.02;;;;;;;-0.76;92.26;101536.84;10621856;28;20084;-71
2022/12/21 11:22:30;;;;;;;22.77;12.63;;;;;;;-0.70;92.93;101544.41;10621043;28;20047;-71
2022/12/21 11:27:32;;;;;;;23.38;12.63;;;;;;;-0.84;93.20;101536.31;10622020;28;20493;-71
2022/12/21 11:32:35;;;;;;;27.98;12.88;;;;;;;-1.37;93.33;101490.72;10621432;28;20035;-71
2022/12/21 11:37:35;;;;;;;28.00;12.30;;;;;;;-1.02;93.46;101544.00;10626133;27;20383;-71
2022/12/21 11:42:49;;;;;;;25.83;12.70;;;;;;;-0.88;95.05;101545.19;10628856;27;20138;-71
2022/12/21 11:48:10;;;;;;;26.00;13.50;;;;;;;-1.07;94.09;101540.75;10629384;27;20059;-71
2022/12/21 11:53:16;;;;;;;24.15;13.35;;;;;;;-1.92;94.47;101405.22;10628602;27;20043;-70
2022/12/21 11:58:32;;;;;;;21.90;12.07;;;;;;;-0.99;94.10;101553.44;10629042;27;20031;-71
2022/12/21 12:03:41;;;;;;;23.15;12.15;;;;;;;-1.00;94.33;101556.97;10628585;27;20098;-70
2022/12/21 12:08:45;;;;;;;29.77;14.00;;;;;;;-1.05;94.91;101544.13;10628899;27;20066;-70
2022/12/21 12:14:05;;;;;;;28.95;13.27;;;;;;;-1.03;96.02;101541.47;10628235;27;20083;-70
2022/12/21 12:19:32;;;;;;;23.45;13.35;;;;;;;-1.19;95.50;101546.47;10610598;27;20066;-70
2022/12/21 12:24:54;;;;;;;29.02;13.77;;;;;;;-1.22;96.08;101544.00;10611573;27;20100;-70
2022/12/21 12:30:08;;;;;;;24.38;14.40;;;;;;;-1.21;96.75;101548.28;10622434;27;20050;-70
2022/12/21 12:35:24;;;;;;;;;;;;;;;-1.05;96.43;101556.31;10627982;27;20046;-71
2022/12/21 12:40:35;;;;;;;31.75;14.73;;;;;;;-1.08;96.30;101549.47;10597646;27;19915;-70
2022/12/21 12:45:44;;;;;;;26.98;14.60;;;;;;;-1.19;95.94;101531.69;10583221;28;20047;-70
2022/12/21 12:51:07;;;;;;;33.90;15.85;;;;;;;-1.13;96.73;101545.38;10590614;27;20154;-71
2022/12/21 12:56:39;;;;;;;27.30;14.02;;;;;;;-1.21;96.76;101545.69;10555296;27;20045;-72
2022/12/21 13:02:12;;;;;;;34.20;14.27;;;;;;;-1.20;97.37;101535.22;10593306;27;20049;-70
2022/12/21 13:07:14;;;;;;;32.85;15.30;;;;;;;-1.34;95.89;101542.75;10581245;27;20043;-72
2022/12/21 13:12:27;;;;;;;30.92;15.27;;;;;;;-1.82;97.98;101478.66;10623006;27;20502;-72
2022/12/21 13:18:05;;;;;;;34.27;16.27;;;;;;;-1.26;98.49;101524.16;10582109;28;20126;-72
2022/12/21 13:23:20;;;;;;;29.45;14.82;;;;;;;-2.09;98.60;101371.22;10582377;28;20088;-72
2022/12/21 13:28:38;;;;;;;31.40;15.40;;;;;;;-1.26;98.24;101508.50;10615720;27;20070;-73
2022/12/21 13:33:48;;;;;;;44.42;19.38;;;;;;;-1.28;97.82;101511.19;10599342;27;20089;-74
2022/12/21 13:39:01;;;;;;;41.33;15.95;;;;;;;-1.50;99.05;101485.16;10603241;27;20568;-74
2022/12/21 13:44:05;;;;;;;35.55;16.00;;;;;;;-1.49;98.52;101486.03;10609221;27;20043;-74
2022/12/21 13:49:16;;;;;;;38.17;16.23;;;;;;;-1.23;99.06;101519.66;10611671;27;20051;-74
2022/12/21 13:54:26;;;;;;;30.90;15.05;;;;;;;-1.18;99.01;101515.09;10587679;27;20115;-74
2022/12/21 13:59:37;;;;;;;34.25;16.17;;;;;;;-1.13;98.31;101520.16;10617185;27;20046;-74
2022/12/21 14:04:50;;;;;;;34.00;16.45;;;;;;;-1.06;99.17;101516.34;10618634;27;20051;-74
2022/12/21 14:10:16;;;;;;;32.63;16.48;;;;;;;-0.95;99.67;101523.75;10595863;27;20153;-74
2022/12/21 14:15:23;;;;;;;29.13;16.17;;;;;;;-1.03;98.63;101524.06;10577068;28;20040;-74
2022/12/21 14:20:26;;;;;;;33.90;16.58;;;;;;;-1.11;98.36;101517.47;10595912;27;20155;-72
2022/12/21 14:25:33;;;;;;;29.43;15.67;;;;;;;-1.14;98.31;101508.00;10562118;28;20495;-73
2022/12/21 14:30:34;;;;;;;37.05;16.27;;;;;;;-1.20;98.61;101516.94;10586429;27;20046;-74
2022/12/21 14:35:42;;;;;;;35.60;15.65;;;;;;;-1.58;98.18;101445.56;10579910;27;20046;-72
2022/12/21 14:41:00;;;;;;;29.08;14.75;;;;;;;-1.18;98.10;101511.66;10578215;27;20039;-72
2022/12/21 14:46:27;;;;;;;32.47;16.27;;;;;;;-1.23;98.42;101506.63;10582331;27;20403;-72
2022/12/21 14:51:56;;;;;;;32.92;16.20;;;;;;;-1.29;98.57;101506.88;10576254;28;20035;-73
2022/12/21 14:57:09;;;;;;;30.65;15.52;;;;;;;-1.73;99.06;101422.75;10579889;28;20062;-73
2022/12/21 15:02:36;;;;;;;31.63;14.70;;;;;;;-1.52;98.50;101465.31;10575006;28;20052;-73
2022/12/21 15:07:54;;;;;;;29.70;15.40;;;;;;;-1.41;98.27;101507.38;10587742;28;20055;-72
2022/12/21 15:12:56;;;;;;;29.05;15.25;;;;;;;-1.47;98.43;101508.47;10599528;27;20063;-72
2022/12/21 15:18:19;;;;;;;40.67;18.00;;;;;;;-1.49;98.61;101512.94;10610488;27;20043;-72
2022/12/21 15:23:24;;;;;;;39.30;17.90;;;;;;;-1.47;99.30;101510.25;10609758;27;20540;-73
2022/12/21 15:28:30;;;;;;;33.47;16.90;;;;;;;-1.44;99.47;101525.75;10587084;28;20103;-73
2022/12/21 15:33:39;;;;;;;38.22;17.75;;;;;;;-1.36;99.65;101521.09;10586751;28;20035;-72
2022/12/21 15:38:45;;;;;;;40.33;17.52;;;;;;;-1.90;99.19;101439.88;10589403;27;20045;-72
2022/12/21 15:43:55;;;;;;;44.03;18.15;;;;;;;-1.92;99.09;101435.63;10629127;27;20070;-72
2022/12/21 15:49:04;;;;;;;35.15;16.55;;;;;;;-1.61;98.71;101500.41;10628699;27;20464;-73
2022/12/21 15:54:23;;;;;;;36.97;16.20;;;;;;;-2.04;98.92;101439.56;10628975;27;20035;-73
2022/12/21 15:59:35;;;;;;;32.38;14.25;;;;;;;-1.61;99.50;101497.78;10628890;27;20490;-73
2022/12/21 16:04:38;;;;;;;35.42;15.52;;;;;;;-1.65;99.25;101497.03;10628222;27;20074;-73
2022/12/21 16:09:40;;;;;;;33.42;15.65;;;;;;;-1.73;99.00;101500.88;10628213;27;20126;-72
2022/12/21 16:14:41;;;;;;;32.25;15.15;;;;;;;-1.83;98.80;101490.81;10590007;27;20472;-73
2022/12/21 16:19:50;;;;;;;52.13;16.15;;;;;;;-2.03;99.68;101466.44;10583482;28;20039;-73
2022/12/21 16:24:57;;;;;;;50.20;15.93;;;;;;;-2.03;99.53;101472.53;10563829;28;20047;-73
2022/12/21 16:30:00;;;;;;;39.22;17.48;;;;;;;-1.99;100.00;101478.47;10580203;28;20036;-73
2022/12/21 16:35:01;;;;;;;39.97;16.33;;;;;;;-1.90;99.45;101485.91;10584222;28;20034;-73
2022/12/21 16:40:17;;;;;;;39.28;15.98;;;;;;;-2.77;100.00;101345.25;10585056;27;20602;-73
2022/12/21 16:45:21;;;;;;;30.70;13.60;;;;;;;-1.93;100.00;101492.09;10571317;28;20065;-73
2022/12/21 16:50:41;;;;;;;32.90;12.70;;;;;;;-1.95;100.00;101496.50;10566053;28;20101;-73
2022/12/21 16:55:42;;;;;;;70.90;13.95;;;;;;;-2.06;100.00;101503.91;10585716;27;20046;-73
2022/12/21 17:00:50;;;;;;;37.83;14.38;;;;;;;-2.27;100.00;101470.84;10617314;27;20050;-73
2022/12/21 17:05:51;;;;;;;39.63;13.23;;;;;;;-2.10;100.00;101497.09;10626403;27;20045;-73
2022/12/21 17:10:59;;;;;;;45.85;12.68;;;;;;;-2.19;100.00;101480.06;10626595;27;20047;-73
2022/12/21 17:16:05;;;;;;;26.13;12.43;;;;;;;-2.34;100.00;101463.28;10621760;27;20050;-72
2022/12/21 17:21:19;;;;;;;37.90;12.20;;;;;;;-2.23;100.00;101475.88;10576709;28;20084;-72
2022/12/21 17:26:38;;;;;;;26.23;10.10;;;;;;;-2.66;100.00;101406.38;10584075;28;20047;-72
2022/12/21 17:31:39;;;;;;;29.52;11.65;;;;;;;-2.54;100.00;101438.03;10540744;28;20399;-72
2022/12/21 17:36:39;;;;;;;32.58;11.35;;;;;;;-2.83;100.00;101386.22;10539747;28;20040;-72
2022/12/21 17:41:42;;;;;;;27.25;10.27;;;;;;;-2.44;100.00;101453.28;10540221;28;20082;-72
2022/12/21 17:46:43;;;;;;;41.30;12.10;;;;;;;-2.60;100.00;101450.41;10539514;28;20082;-73
2022/12/21 17:51:44;;;;;;;32.80;10.07;;;;;;;-2.72;100.00;101454.31;10521467;28;20051;-73
2022/12/21 17:56:45;;;;;;;49.53;11.65;;;;;;;-2.88;100.00;101446.19;10587088;27;20043;-72
2022/12/21 18:01:47;;;;;;;56.95;10.80;;;;;;;-2.81;100.00;101470.25;10581283;28;20043;-72
2022/12/21 18:06:47;;;;;;;59.03;9.00;;;;;;;-3.12;100.00;101444.47;10612375;27;20067;-72
2022/12/21 18:11:48;;;;;;;72.68;10.32;;;;;;;-2.94;100.00;101471.56;10624179;27;20070;-72
2022/12/21 18:16:49;;;;;;;51.28;10.30;;;;;;;-3.32;100.00;101404.44;10623583;27;20047;-72
2022/12/21 18:21:50;;;;;;;25.13;9.98;;;;;;;-2.96;100.00;101461.25;10622656;27;20134;-71
2022/12/21 18:26:50;;;;;;;48.35;10.93;;;;;;;-3.03;100.00;101455.38;10622574;27;20105;-72
2022/12/21 18:31:51;;;;;;;41.15;9.95;;;;;;;-3.14;100.00;101448.84;10622922;27;20059;-72
2022/12/21 18:36:52;;;;;;;29.67;9.25;;;;;;;-3.27;100.00;101440.66;10585296;27;20036;-72
2022/12/21 18:41:53;;;;;;;103.53;10.40;;;;;;;-3.37;100.00;101434.94;10604645;27;20051;-72
2022/12/21 18:46:55;;;;;;;41.58;10.07;;;;;;;-3.52;100.00;101418.09;10610447;27;20570;-72
2022/12/21 18:51:56;;;;;;;41.97;10.57;;;;;;;-3.24;100.00;101443.13;10580785;27;20046;-72
2022/12/21 18:56:57;;;;;;;29.67;10.93;;;;;;;-3.19;100.00;101445.59;10585676;27;20044;-72
2022/12/21 19:01:58;;;;;;;64.22;11.65;;;;;;;-3.35;100.00;101417.53;10611470;28;20035;-72
2022/12/21 19:07:00;;;;;;;37.70;10.18;;;;;;;-3.25;99.88;101439.69;10581668;28;20043;-70
2022/12/21 19:12:01;;;;;;;25.52;9.50;;;;;;;-3.27;100.00;101418.09;10594290;28;20045;-73
2022/12/21 19:17:02;;;;;;;75.53;11.05;;;;;;;-3.22;100.00;101418.81;10602712;28;20064;-71
2022/12/21 19:22:03;;;;;;;28.05;10.30;;;;;;;-3.16;99.74;101430.75;10621239;28;20039;-71
2022/12/21 19:27:05;;;;;;;54.40;10.00;;;;;;;-3.27;99.03;101425.91;10621367;28;20043;-70
2022/12/21 19:32:07;;;;;;;42.42;10.38;;;;;;;-3.62;99.58;101372.59;10621076;28;20130;-70
2022/12/21 19:37:24;;;;;;;105.30;12.13;;;;;;;-3.50;99.71;101407.66;10620892;28;20038;-70
2022/12/21 19:42:30;;;;;;;39.30;9.95;;;;;;;-3.41;99.83;101420.34;10602094;28;20031;-71
2022/12/21 19:47:31;;;;;;;175.95;11.23;;;;;;;-3.59;99.39;101407.97;10619322;28;20699;-71
2022/12/21 19:52:31;;;;;;;50.55;10.60;;;;;;;-3.56;99.38;101419.13;10599718;28;20181;-70
2022/12/21 19:57:36;;;;;;;53.78;10.63;;;;;;;-3.58;99.72;101427.84;10617465;27;20050;-69
2022/12/21 20:02:42;;;;;;;96.35;11.68;;;;;;;-3.72;99.63;101423.94;10628403;27;20046;-70
2022/12/21 20:07:43;;;;;;;41.08;10.75;;;;;;;-3.67;99.99;101422.06;10628559;27;20513;-70
2022/12/21 20:12:47;;;;;;;172.63;12.05;;;;;;;-3.74;99.60;101409.31;10628565;27;20039;-70
2022/12/21 20:17:47;;;;;;;40.43;9.33;;;;;;;-3.61;99.60;101441.78;10628335;27;20049;-71
2022/12/21 20:22:49;;;;;;;52.15;10.73;;;;;;;-3.69;100.00;101446.38;10627093;27;20383;-70
2022/12/21 20:27:55;;;;;;;115.90;12.60;;;;;;;-3.88;99.81;101425.38;10573486;27;20403;-70
2022/12/21 20:33:19;;;;;;;32.45;10.15;;;;;;;-4.19;100.00;101351.09;10582107;28;20440;-70
2022/12/21 20:38:26;;;;;;;134.48;11.68;;;;;;;-3.82;99.78;101424.31;10580861;28;20049;-70
2022/12/21 20:43:47;;;;;;;64.35;10.38;;;;;;;-3.82;100.00;101416.53;10586134;27;20452;-70
2022/12/21 20:48:49;;;;;;;103.65;9.70;;;;;;;-4.03;99.74;101403.34;10621237;27;20176;-70
2022/12/21 20:53:50;;;;;;;67.32;9.05;;;;;;;-4.10;99.74;101400.97;10625392;27;20050;-70
2022/12/21 20:58:52;;;;;;;34.25;8.40;;;;;;;-4.56;99.55;101322.00;10626194;27;20035;-70
2022/12/21 21:03:53;;;;;;;57.63;8.77;;;;;;;-4.00;99.36;101438.72;10626396;27;20054;-70
2022/12/21 21:08:54;;;;;;;44.22;8.75;;;;;;;-4.16;99.56;101402.00;10625896;27;20038;-70
2022/12/21 21:13:55;;;;;;;20.90;8.70;;;;;;;-3.91;99.55;101428.06;10626941;27;20031;-70
2022/12/21 21:18:58;;;;;;;22.25;8.30;;;;;;;-3.96;99.11;101419.56;10626187;27;20129;-70
2022/12/21 21:23:59;;;;;;;29.13;8.10;;;;;;;-4.00;99.24;101410.19;10625361;27;20582;-70
2022/12/21 21:29:00;;;;;;;36.35;8.63;;;;;;;-4.26;99.03;101367.72;10625092;27;20047;-70
2022/12/21 21:34:01;;;;;;;21.70;10.35;;;;;;;-4.15;98.40;101407.16;10625379;27;20035;-70
2022/12/21 21:44:34;;;;;;;25.85;8.85;;;;;;;-4.49;98.29;101328.69;10625336;27;20043;-70
2022/12/21 21:49:35;;;;;;;74.07;10.63;;;;;;;-4.16;98.43;101395.09;10625253;27;20138;-71
2022/12/21 21:54:36;;;;;;;15.77;7.07;;;;;;;-4.34;98.13;101364.53;10624381;27;20047;-70
2022/12/21 21:59:37;;;;;;;17.48;6.75;;;;;;;-4.29;98.01;101383.38;10624219;27;20483;-70
2022/12/21 22:04:38;;;;;;;14.52;6.90;;;;;;;-4.78;98.18;101304.53;10605035;27;20407;-70
2022/12/21 22:09:39;;;;;;;19.42;7.18;;;;;;;-4.41;97.75;101387.22;10605108;27;20040;-70
2022/12/21 22:15:11;;;;;;;41.28;9.10;;;;;;;-4.57;97.96;101386.00;10622997;27;20074;-70
2022/12/21 22:46:53;;;;;;;96.65;10.90;;;;;;;-4.63;98.15;101353.31;10609350;27;20510;-70
2022/12/21 22:51:54;;;;;;;28.58;9.25;;;;;;;-4.50;97.86;101368.50;10604096;27;20055;-70
2022/12/21 22:56:55;;;;;;;23.80;9.70;;;;;;;-4.96;97.74;101302.50;10617944;27;20039;-70
2022/12/21 23:01:56;;;;;;;29.15;10.40;;;;;;;-4.57;97.85;101375.63;10579693;28;20122;-70
2022/12/21 23:06:56;;;;;;;47.25;10.98;;;;;;;-4.51;98.05;101385.81;10579661;28;20131;-70
2022/12/21 23:28:05;;;;;;;31.73;9.85;;;;;;;-4.34;97.80;101405.19;10579242;28;20039;-70
2022/12/21 23:43:50;;;;;;;21.38;10.60;;;;;;;-4.56;97.18;101376.47;10587247;28;20054;-70
